SBSPSBVT

Guest
Details From SBSP - Sao Paulo Congonhas
To SBVT - Goiabeiras
Flight Number -
Tags Decoded
Created
Modified
Stats Distance 408 nm / 755 km
Max Altitude 0 ft / 0 m
Waypoints 2
Social Downloads 7
Likes 0
Share VATSIM

Download

Looking for another format? Having issues loading an existing format? Contact us
Advertisement - Login to hide

Notes

Decoded

Route

SBSP SBVT

ID Type Via Altitude Latitude Longitude Leg Dist Tot Dist Heading (true) Name
O SBSP APT - 0 ft / 0 m -23.62070˚ -46.65829˚ - 0 nm - -
O SBVT APT - 0 ft / 0 m -20.26234˚ -40.29332˚ 407 nm 407 nm 62° / 59° Goiabeiras

Altitude Profile

Advertisement - Login to hide

Weather


0- 5 10 15 20 25 30 35+ Temperature / ° C

Clouds and Precipitation
Forecast for 2018-05-25 18:00 UTC. Updated 5 hours ago

Ground ~20,000 ft ~40,000 ft Winds

SBSP

Details ICAO SBSP (CGH)
Name Sao Paulo Congonhas
Region Brazil
Timezone America/Sao_Paulo (UTC-3.0)
Stats Elevation 2,631 ft / 802 m (AMSL)
Location -23.626693° -46.655377°
Runways 2
Magnetic Variation 21.349° W

METAR

SBSP 252200Z 15008KT 9999 SCT009 OVC013 17/14 Q1024

Decode

TAF

TAF SBSP 251500Z 2518/2618 14005KT 9999 SCT020TX22/2518Z TN15/2609Z BECMG 2520/2522 BKN010 BECMG 2602/2604 10003KT PROB30 2607/2611 6000 BKN007 BECMG 2613/2615 15006KT 9999 SCT020 RMK PGH

Decode

Departure Runways

ID Width Length Bearing (true) Bearing (mag) Surface Threshold Offset Overrun Length
17L 147 ft / 45 m 4,726 ft / 1,441 m 147.28° 168.63° Asphalt 0 ft / 0 m 220 ft / 67 m
17R 147 ft / 45 m 6,406 ft / 1,953 m 147.39° 168.74° Asphalt 413 ft / 126 m 0 ft / 0 m
35L 147 ft / 45 m 6,406 ft / 1,953 m 327.38° 348.73° Asphalt 200 ft / 61 m 0 ft / 0 m
35R 147 ft / 45 m 4,726 ft / 1,441 m 327.28° 348.63° Asphalt 0 ft / 0 m 0 ft / 0 m

SBVT

Details ICAO SBVT (VIX)
Name Goiabeiras
Region Brazil
Timezone America/Sao_Paulo (UTC-3.0)
Stats Elevation 11 ft / 3 m (AMSL)
Location -20.255611° -40.288893°
Runways 1
Magnetic Variation 23.829° W

METAR

SBVT 252234Z 18003KT 4000 -RA BKN005 BKN020 20/19 Q1022 RETS

Decode

TAF

TAF SBVT 251600Z 2518/2618 17009KT 7000 SCT010 BKN018 TN20/2606Z TX23/2616Z TEMPO 2519/2523 5000 RA BKN012 BECMG 2600/2602 20005KT TEMPO 2607/2610 BKN010 BECMG 2610/2612 15009KT RMK PEU

Decode

Destination Runways

ID Width Length Bearing (true) Bearing (mag) Surface Threshold Offset Overrun Length
05 148 ft / 45 m 5,769 ft / 1,759 m 31.71° 55.54° Asphalt 0 ft / 0 m 189 ft / 58 m
23 148 ft / 45 m 5,769 ft / 1,759 m 211.71° 235.54° Asphalt 0 ft / 0 m 189 ft / 58 m

Popular Alternatives